Time;durP1;ratioP1;P1;durP2;ratioP2;P2;SDS_P1;SDS_P2;PMS_P1;PMS_P2;Temp;Humidity;BMP_temperature;BMP_pressure;BME280_temperature;BME280_humidity;BME280_pressure;Samples;Min_cycle;Max_cycle;Signal;HPM_P1;HPM_P2
2023/04/22 00:00:29;;;;;;;9.60;5.20;;;;;;;6.50;71.29;95324.45;106788;1274;22887;-67
2023/04/22 00:03:14;;;;;;;7.70;5.40;;;;;;;6.55;71.29;95325.30;106728;1274;25252;-67
2023/04/22 00:05:43;;;;;;;9.20;5.90;;;;;;;6.59;71.02;95324.05;106751;1274;22521;-67
2023/04/22 00:08:12;;;;;;;6.30;4.90;;;;;;;6.52;70.87;95326.89;106737;1274;22521;-66
2023/04/22 00:10:40;;;;;;;7.90;5.80;;;;;;;6.36;70.73;95325.08;106762;1274;25324;-67
2023/04/22 00:13:09;;;;;;;7.90;5.70;;;;;;;6.24;70.93;95328.46;106796;1274;24376;-66
2023/04/22 00:15:37;;;;;;;8.10;5.50;;;;;;;6.23;71.02;95332.15;106762;1274;22751;-67
2023/04/22 00:18:12;;;;;;;9.10;6.10;;;;;;;6.21;71.74;95332.50;107064;1274;25210;-66
2023/04/22 00:20:42;;;;;;;10.50;6.20;;;;;;;6.22;71.28;95336.69;106814;1274;25315;-67
2023/04/22 00:23:12;;;;;;;8.70;6.80;;;;;;;6.24;71.21;95331.09;106647;1274;25449;-66
2023/04/22 00:25:40;;;;;;;7.10;6.00;;;;;;;6.23;70.85;95330.58;106813;1274;22593;-66
2023/04/22 00:28:08;;;;;;;9.30;6.20;;;;;;;6.21;70.69;95329.53;106732;1274;24377;-67
2023/04/22 00:30:37;;;;;;;10.40;6.10;;;;;;;6.15;70.72;95329.92;107027;1274;25386;-66
2023/04/22 00:33:05;;;;;;;9.40;5.90;;;;;;;6.06;70.69;95331.38;107030;1274;22518;-67
2023/04/22 00:35:33;;;;;;;9.20;5.40;;;;;;;5.94;71.75;95332.28;106857;1274;22533;-66
2023/04/22 00:38:01;;;;;;;9.50;5.50;;;;;;;5.83;71.70;95337.73;106832;1274;25238;-66
2023/04/22 00:40:30;;;;;;;6.80;5.80;;;;;;;5.80;71.82;95334.79;106784;1272;22517;-67
2023/04/22 00:42:59;;;;;;;7.80;5.40;;;;;;;5.80;71.72;95337.58;106697;1263;22533;-66
2023/04/22 00:45:27;;;;;;;8.60;5.70;;;;;;;5.77;72.08;95333.75;106885;1274;24024;-66
2023/04/22 00:47:56;;;;;;;7.40;5.10;;;;;;;5.70;71.78;95334.48;106754;1274;22532;-67
2023/04/22 00:50:25;;;;;;;7.50;5.50;;;;;;;5.67;71.59;95329.95;106792;1274;24252;-66
2023/04/22 00:52:53;;;;;;;7.50;5.20;;;;;;;5.68;71.59;95335.35;106621;1274;24052;-67
2023/04/22 00:55:21;;;;;;;7.20;5.40;;;;;;;5.66;71.80;95335.54;106623;1274;24273;-67
2023/04/22 00:57:52;;;;;;;8.90;5.50;;;;;;;5.62;72.11;95332.94;106853;1274;22520;-67
2023/04/22 01:00:25;;;;;;;9.90;5.80;;;;;;;5.57;72.30;95333.65;106979;1274;24341;-67
2023/04/22 01:02:55;;;;;;;11.40;6.40;;;;;;;5.58;72.48;95332.25;106777;1274;22524;-66
2023/04/22 01:05:24;;;;;;;6.90;5.70;;;;;;;5.59;72.74;95335.55;106666;1274;22541;-67
2023/04/22 01:07:53;;;;;;;11.20;6.30;;;;;;;5.59;73.34;95335.03;106686;1274;25444;-66
2023/04/22 01:10:21;;;;;;;9.60;6.00;;;;;;;5.59;73.83;95340.27;106646;1274;24246;-66
2023/04/22 01:12:51;;;;;;;8.40;6.10;;;;;;;5.55;73.38;95338.54;106826;1274;22649;-66
2023/04/22 01:15:20;;;;;;;7.00;5.60;;;;;;;5.55;73.29;95339.23;106651;1274;22514;-67
2023/04/22 01:17:48;;;;;;;11.00;5.90;;;;;;;5.53;73.01;95340.10;106790;1274;25497;-67
2023/04/22 01:20:18;;;;;;;9.10;6.10;;;;;;;5.52;72.99;95341.16;106796;1274;22530;-67
2023/04/22 01:22:49;;;;;;;8.50;5.70;;;;;;;5.51;72.76;95343.08;106807;1274;24205;-66
2023/04/22 01:25:18;;;;;;;7.20;6.00;;;;;;;5.49;73.15;95343.44;106681;1274;22592;-67
2023/04/22 01:27:46;;;;;;;8.50;5.60;;;;;;;5.48;73.03;95340.48;106928;1259;24284;-66
2023/04/22 01:30:15;;;;;;;12.20;5.60;;;;;;;5.50;73.26;95345.18;106757;1274;22532;-66
2023/04/22 01:32:44;;;;;;;7.20;4.80;;;;;;;5.51;74.23;95342.55;106711;1274;22516;-66
2023/04/22 01:35:12;;;;;;;8.90;5.90;;;;;;;5.49;74.69;95345.70;106753;1274;22721;-66
2023/04/22 01:37:40;;;;;;;8.30;5.60;;;;;;;5.45;75.02;95347.11;106786;1272;22520;-66
2023/04/22 01:40:10;;;;;;;12.70;5.90;;;;;;;5.50;75.47;95348.33;106614;1274;22646;-66
2023/04/22 01:42:38;;;;;;;10.30;5.90;;;;;;;5.49;75.10;95348.84;106769;1274;24255;-66
2023/04/22 01:45:07;;;;;;;8.40;5.40;;;;;;;5.54;75.05;95351.62;106603;1274;23160;-66
2023/04/22 01:47:35;;;;;;;7.70;5.40;;;;;;;5.62;74.75;95353.00;106770;1274;22562;-66
2023/04/22 01:50:04;;;;;;;9.20;5.10;;;;;;;5.59;74.55;95352.83;106618;1274;24394;-66
2023/04/22 01:52:32;;;;;;;6.80;4.90;;;;;;;5.56;74.87;95357.55;106796;1274;22527;-66
2023/04/22 01:55:01;;;;;;;11.50;5.40;;;;;;;5.58;74.83;95354.23;106771;1274;24355;-66
2023/04/22 01:57:29;;;;;;;7.50;5.00;;;;;;;5.57;74.50;95357.91;106836;1260;25191;-66
2023/04/22 01:59:58;;;;;;;7.60;5.70;;;;;;;5.50;74.31;95351.64;106596;1274;22517;-66
2023/04/22 02:02:26;;;;;;;9.00;6.00;;;;;;;5.49;74.87;95355.65;106650;1274;25334;-66
2023/04/22 02:04:54;;;;;;;9.20;5.20;;;;;;;5.54;74.80;95355.82;106741;1274;25284;-66
2023/04/22 02:07:22;;;;;;;7.80;5.80;;;;;;;5.59;74.60;95353.36;106740;1274;24287;-67
2023/04/22 02:09:51;;;;;;;6.90;5.50;;;;;;;5.61;74.38;95352.83;106740;1272;22517;-66
2023/04/22 02:12:19;;;;;;;9.40;6.00;;;;;;;5.63;74.35;95352.83;106840;1274;22568;-66
2023/04/22 02:14:47;;;;;;;11.00;6.10;;;;;;;5.62;74.60;95354.58;106606;1274;22520;-66
2023/04/22 02:17:16;;;;;;;9.00;6.40;;;;;;;5.60;74.85;95358.06;106803;1274;22514;-67
2023/04/22 02:19:46;;;;;;;9.50;6.10;;;;;;;5.57;74.27;95359.13;106809;1274;22524;-66
2023/04/22 02:22:14;;;;;;;9.50;5.50;;;;;;;5.52;73.90;95358.08;106598;1274;22573;-66
2023/04/22 02:24:42;;;;;;;10.10;5.70;;;;;;;5.47;73.77;95354.44;106647;1274;22525;-66
2023/04/22 02:27:11;;;;;;;7.70;5.70;;;;;;;5.37;73.58;95352.02;106710;1274;25492;-67
2023/04/22 02:29:39;;;;;;;8.40;5.60;;;;;;;5.33;74.15;95351.86;106652;1274;25390;-67
2023/04/22 02:32:08;;;;;;;8.80;6.00;;;;;;;5.20;74.56;95348.91;106791;1274;22534;-66
2023/04/22 02:34:36;;;;;;;8.70;5.80;;;;;;;5.11;74.34;95347.73;106686;1274;25495;-67
2023/04/22 02:37:05;;;;;;;8.40;5.10;;;;;;;5.05;74.42;95349.98;106758;1274;22606;-66
2023/04/22 02:39:33;;;;;;;8.40;5.80;;;;;;;4.99;74.76;95348.42;106650;1274;25390;-67
2023/04/22 02:42:01;;;;;;;9.10;5.90;;;;;;;4.93;75.18;95352.27;106723;1274;25453;-66
2023/04/22 02:44:30;;;;;;;7.30;5.50;;;;;;;4.86;75.11;95355.23;106672;1274;22521;-66
2023/04/22 02:46:58;;;;;;;11.20;5.60;;;;;;;4.81;75.00;95356.62;106599;1274;25473;-66
2023/04/22 02:49:26;;;;;;;8.70;5.90;;;;;;;4.73;74.84;95356.27;106612;1274;22549;-67
2023/04/22 02:51:56;;;;;;;7.30;5.50;;;;;;;4.64;75.10;95353.66;106835;1274;22532;-66
2023/04/22 02:54:24;;;;;;;7.90;5.90;;;;;;;4.52;75.40;95354.00;106647;1274;24253;-66
2023/04/22 02:56:52;;;;;;;8.90;5.20;;;;;;;4.45;75.24;95351.04;106683;1274;25248;-66
2023/04/22 02:59:21;;;;;;;9.70;6.10;;;;;;;4.42;75.89;95354.52;106719;1274;22526;-66
2023/04/22 03:01:49;;;;;;;8.70;5.70;;;;;;;4.31;75.28;95357.29;106612;1274;23145;-66
2023/04/22 03:04:28;;;;;;;7.50;5.80;;;;;;;4.24;75.19;95355.70;106626;1274;24189;-66
2023/04/22 03:06:58;;;;;;;9.90;6.00;;;;;;;4.21;75.43;95352.56;106644;1254;24246;-66
2023/04/22 03:09:26;;;;;;;9.80;6.10;;;;;;;4.18;75.35;95353.78;106705;1274;22512;-66
2023/04/22 03:11:54;;;;;;;7.90;5.70;;;;;;;4.13;75.17;95356.20;106677;1274;22659;-66
2023/04/22 03:14:22;;;;;;;8.60;5.70;;;;;;;4.06;75.87;95354.27;106844;1274;22637;-66
2023/04/22 03:16:50;;;;;;;7.50;5.30;;;;;;;3.97;76.07;95356.67;106580;1274;22625;-69
2023/04/22 03:19:19;;;;;;;8.70;6.00;;;;;;;3.90;75.84;95365.19;106859;1260;25776;-66
2023/04/22 03:21:47;;;;;;;10.30;6.20;;;;;;;3.85;75.70;95366.73;106828;1274;24256;-66
2023/04/22 03:24:16;;;;;;;7.50;6.50;;;;;;;3.78;75.46;95367.05;106771;1274;22517;-66
2023/04/22 03:26:47;;;;;;;8.20;5.70;;;;;;;3.78;75.57;95374.89;106621;1274;22529;-66
2023/04/22 03:29:16;;;;;;;8.40;5.80;;;;;;;3.73;75.66;95376.77;106613;1274;23739;-66
2023/04/22 03:31:44;;;;;;;7.50;5.00;;;;;;;3.67;75.91;95383.36;106616;1274;24344;-66
2023/04/22 03:34:13;;;;;;;9.30;5.60;;;;;;;3.65;76.09;95383.70;106654;1274;25389;-66
2023/04/22 03:36:42;;;;;;;11.50;5.60;;;;;;;3.60;76.41;95385.77;106773;1274;22601;-66
2023/04/22 03:39:10;;;;;;;8.70;5.30;;;;;;;3.59;76.66;95382.80;106759;1258;22773;-66
2023/04/22 03:41:39;;;;;;;6.00;4.90;;;;;;;3.61;76.93;95385.26;106843;1274;24364;-66
2023/04/22 03:44:07;;;;;;;7.80;5.00;;;;;;;3.59;76.74;95388.03;106809;1274;22511;-68
2023/04/22 03:46:35;;;;;;;9.20;4.70;;;;;;;3.56;76.74;95392.02;106760;1274;22753;-66
2023/04/22 03:49:15;;;;;;;8.00;5.30;;;;;;;3.51;76.84;95389.71;106802;1274;25329;-66
2023/04/22 03:51:44;;;;;;;8.50;4.90;;;;;;;3.52;77.09;95393.02;106619;1274;25395;-66
2023/04/22 03:54:15;;;;;;;7.00;4.50;;;;;;;3.53;77.15;95396.86;106803;1274;22514;-66
2023/04/22 03:56:47;;;;;;;8.70;5.40;;;;;;;3.61;77.56;95395.16;106648;1274;25326;-66
2023/04/22 03:59:17;;;;;;;7.00;5.30;;;;;;;3.71;77.49;95395.04;106625;1274;24358;-66
2023/04/22 04:01:46;;;;;;;7.40;4.90;;;;;;;3.74;76.80;95398.35;106600;1274;22511;-67
2023/04/22 04:04:16;;;;;;;8.40;6.00;;;;;;;3.75;77.13;95403.23;106669;1274;24350;-66
2023/04/22 04:06:50;;;;;;;9.50;5.80;;;;;;;3.81;77.96;95403.09;106650;1274;22546;-66
2023/04/22 04:09:19;;;;;;;8.50;5.80;;;;;;;3.83;77.69;95405.52;106835;1274;25387;-66
2023/04/22 04:11:47;;;;;;;9.10;5.70;;;;;;;3.83;77.14;95406.91;106609;1274;25457;-66
2023/04/22 04:14:15;;;;;;;9.70;6.50;;;;;;;3.84;78.04;95407.27;106631;1274;24212;-66
2023/04/22 04:16:48;;;;;;;9.80;5.90;;;;;;;3.90;77.49;95409.55;106743;1274;22550;-66
2023/04/22 04:19:23;;;;;;;9.00;6.50;;;;;;;3.92;78.07;95412.17;106658;1274;25431;-66
2023/04/22 04:21:53;;;;;;;12.50;5.30;;;;;;;4.00;78.20;95416.03;106649;1274;22536;-66
2023/04/22 04:24:22;;;;;;;7.40;5.40;;;;;;;4.00;77.77;95415.52;106812;1274;24925;-66
2023/04/22 04:26:52;;;;;;;9.50;6.30;;;;;;;4.00;77.61;95417.26;106795;1274;25331;-66
2023/04/22 04:29:26;;;;;;;7.60;5.20;;;;;;;4.08;78.18;95419.73;106766;1274;22535;-66
2023/04/22 04:32:08;;;;;;;6.00;4.80;;;;;;;4.14;78.58;95422.88;106798;1274;24374;-66
2023/04/22 04:34:37;;;;;;;8.50;6.30;;;;;;;4.18;78.02;95426.71;106665;1274;22636;-66
2023/04/22 04:37:05;;;;;;;12.90;8.10;;;;;;;4.22;78.56;95427.77;106662;1274;22522;-66
2023/04/22 04:39:58;;;;;;;35.10;13.30;;;;;;;4.32;78.63;95426.41;106758;1274;24347;-66
2023/04/22 04:42:32;;;;;;;19.80;8.00;;;;;;;4.39;78.10;95428.00;106725;1251;22807;-66
2023/04/22 04:45:03;;;;;;;31.20;15.30;;;;;;;4.46;78.14;95428.02;106836;1274;22636;-66
2023/04/22 04:47:32;;;;;;;24.80;16.90;;;;;;;4.57;78.32;95430.48;106755;1274;25468;-67
2023/04/22 04:50:10;;;;;;;32.60;17.00;;;;;;;4.71;77.88;95428.24;106690;1274;25229;-66
2023/04/22 04:52:39;;;;;;;28.60;19.70;;;;;;;4.83;77.66;95429.11;106755;1274;22523;-66
2023/04/22 04:55:07;;;;;;;25.70;16.50;;;;;;;4.93;77.66;95427.91;106689;1274;25773;-66
2023/04/22 04:57:35;;;;;;;19.90;12.30;;;;;;;5.06;77.39;95430.36;106719;1274;25271;-66
2023/04/22 05:00:07;;;;;;;14.60;10.50;;;;;;;5.17;77.62;95429.48;106649;1274;25473;-66
2023/04/22 05:02:36;;;;;;;15.70;11.40;;;;;;;5.28;77.52;95427.55;106675;1274;22640;-67
2023/04/22 05:05:06;;;;;;;15.30;10.10;;;;;;;5.40;77.22;95425.80;106702;1274;24354;-67
2023/04/22 05:07:34;;;;;;;16.50;9.80;;;;;;;5.53;76.83;95422.11;106690;1274;25316;-66
2023/04/22 05:10:03;;;;;;;14.70;8.50;;;;;;;5.64;76.38;95425.94;106451;1274;25453;-67
2023/04/22 05:12:32;;;;;;;13.30;7.80;;;;;;;5.75;76.16;95432.02;106810;1274;25853;-66
2023/04/22 05:15:02;;;;;;;9.60;7.50;;;;;;;5.87;75.93;95436.70;106773;1274;24516;-66
2023/04/22 05:17:30;;;;;;;9.90;7.00;;;;;;;5.97;75.39;95433.19;106628;1274;25454;-67
2023/04/22 05:19:59;;;;;;;13.70;8.80;;;;;;;6.08;74.97;95431.23;106680;1274;24371;-66
2023/04/22 05:22:27;;;;;;;10.40;7.80;;;;;;;6.22;75.03;95431.36;106633;1274;23516;-67
2023/04/22 05:24:55;;;;;;;14.60;7.40;;;;;;;6.38;75.01;95433.73;106721;1274;25476;-66
2023/04/22 05:27:23;;;;;;;11.60;7.00;;;;;;;6.54;74.53;95431.90;106821;1274;22513;-66
2023/04/22 05:29:52;;;;;;;9.30;7.10;;;;;;;6.67;74.02;95427.63;106755;1274;22778;-66
2023/04/22 05:32:23;;;;;;;10.70;7.40;;;;;;;6.84;73.38;95424.72;106672;1266;22778;-66
2023/04/22 05:34:52;;;;;;;13.70;6.70;;;;;;;7.02;73.40;95424.07;106790;1274;25458;-66
2023/04/22 05:37:21;;;;;;;10.10;7.30;;;;;;;7.18;72.52;95422.19;106709;1274;25275;-66
2023/04/22 05:39:50;;;;;;;14.10;7.50;;;;;;;7.38;73.34;95415.73;106774;1274;22637;-66
2023/04/22 05:42:18;;;;;;;13.40;7.40;;;;;;;7.60;72.33;95414.13;106770;1274;24321;-66
2023/04/22 05:44:46;;;;;;;12.80;7.90;;;;;;;7.81;72.46;95416.88;106593;1274;25382;-66
2023/04/22 05:47:16;;;;;;;14.70;8.80;;;;;;;8.05;71.89;95414.68;106676;1274;24503;-67
2023/04/22 05:49:44;;;;;;;11.50;8.70;;;;;;;8.24;71.49;95414.45;106789;1274;22800;-67
2023/04/22 05:52:39;;;;;;;13.30;8.70;;;;;;;8.46;71.45;95413.33;106730;1274;22509;-67
2023/04/22 05:55:12;;;;;;;12.90;8.90;;;;;;;8.63;70.86;95414.50;106791;1270;24227;-66
2023/04/22 05:57:40;;;;;;;12.00;8.20;;;;;;;8.78;70.62;95412.71;106610;1274;22968;-67
2023/04/22 06:00:17;;;;;;;8.40;7.10;;;;;;;8.93;69.70;95413.36;106775;1274;24231;-66
2023/04/22 06:02:48;;;;;;;11.60;9.20;;;;;;;9.02;68.57;95414.98;106696;1274;22534;-66
2023/04/22 06:05:17;;;;;;;11.60;8.30;;;;;;;9.13;68.98;95413.92;106821;1274;22527;-67
2023/04/22 06:07:46;;;;;;;10.50;7.30;;;;;;;9.26;68.32;95412.83;106806;1274;22515;-67
2023/04/22 06:10:14;;;;;;;8.70;6.80;;;;;;;9.39;67.40;95418.24;106828;1274;24378;-67
2023/04/22 06:12:43;;;;;;;11.00;7.10;;;;;;;9.51;67.10;95420.15;106737;1274;22583;-66
2023/04/22 06:15:11;;;;;;;10.00;6.70;;;;;;;9.64;66.09;95420.45;106701;1274;25197;-66
2023/04/22 06:17:40;;;;;;;11.70;6.80;;;;;;;9.76;64.95;95425.50;106707;1263;22545;-66
2023/04/22 06:20:09;;;;;;;11.00;6.70;;;;;;;9.88;64.71;95423.70;106755;1274;22748;-66
2023/04/22 06:22:38;;;;;;;9.70;6.10;;;;;;;10.03;64.76;95424.13;106668;1274;22542;-67
2023/04/22 06:25:06;;;;;;;14.60;11.20;;;;;;;10.14;64.52;95424.94;106679;1274;22637;-66
2023/04/22 06:27:35;;;;;;;8.50;5.90;;;;;;;10.29;64.08;95424.68;106839;1274;24533;-67
2023/04/22 06:30:04;;;;;;;6.80;5.10;;;;;;;10.40;60.93;95424.98;106652;1274;24253;-67
2023/04/22 06:32:32;;;;;;;8.20;5.50;;;;;;;10.51;60.73;95427.76;106704;1272;22525;-67
2023/04/22 06:35:01;;;;;;;9.30;5.50;;;;;;;10.63;58.91;95426.98;106628;1274;24469;-66
2023/04/22 06:37:29;;;;;;;9.50;5.70;;;;;;;10.73;57.00;95420.25;106747;1274;22596;-66
2023/04/22 06:39:57;;;;;;;10.40;5.80;;;;;;;10.78;56.79;95421.19;106632;1274;25278;-67
2023/04/22 06:42:44;;;;;;;9.90;6.80;;;;;;;10.91;57.77;95415.99;106628;1274;22766;-67
2023/04/22 06:45:19;;;;;;;7.90;6.00;;;;;;;11.04;56.32;95414.10;106636;1274;24242;-67
2023/04/22 06:48:06;;;;;;;8.20;5.50;;;;;;;11.18;56.47;95412.17;106800;1274;22518;-67
2023/04/22 06:50:46;;;;;;;6.20;5.60;;;;;;;11.33;55.15;95409.55;106612;1274;22522;-67
2023/04/22 06:53:14;;;;;;;8.70;5.80;;;;;;;11.47;53.43;95409.02;106626;1274;22528;-67
2023/04/22 06:55:42;;;;;;;7.00;6.20;;;;;;;11.60;52.50;95406.06;106755;1274;23869;-67
2023/04/22 06:58:11;;;;;;;7.00;5.90;;;;;;;11.75;52.51;95410.78;106616;1274;26526;-67
2023/04/22 07:00:39;;;;;;;11.20;5.70;;;;;;;11.87;52.02;95403.06;106766;1274;22532;-67
2023/04/22 07:03:08;;;;;;;8.10;5.10;;;;;;;12.03;52.22;95404.05;106738;1274;25374;-67
2023/04/22 07:05:37;;;;;;;8.80;5.80;;;;;;;12.18;51.74;95406.29;106688;1274;22644;-65
2023/04/22 07:08:07;;;;;;;10.90;5.40;;;;;;;12.30;51.25;95405.60;106716;1274;25487;-65
2023/04/22 07:10:35;;;;;;;10.20;5.40;;;;;;;12.39;51.83;95408.17;106765;1274;22518;-64
2023/04/22 07:13:32;;;;;;;11.50;6.00;;;;;;;12.58;51.52;95406.58;106762;1274;24376;-65
2023/04/22 07:16:01;;;;;;;7.90;5.90;;;;;;;12.69;50.70;95405.16;106779;1264;22874;-65
2023/04/22 07:18:29;;;;;;;9.70;5.40;;;;;;;12.79;51.16;95404.52;106833;1274;22541;-65
2023/04/22 07:20:58;;;;;;;10.50;5.50;;;;;;;12.92;51.89;95406.05;106726;1274;24247;-65
2023/04/22 07:23:26;;;;;;;9.60;6.10;;;;;;;13.07;51.48;95406.85;106645;1274;22642;-65
2023/04/22 07:25:54;;;;;;;8.00;5.40;;;;;;;13.15;49.93;95407.30;106758;1274;25274;-65
2023/04/22 07:28:23;;;;;;;7.10;5.50;;;;;;;13.22;48.73;95407.61;106831;1274;25528;-65
2023/04/22 07:30:53;;;;;;;9.30;5.50;;;;;;;13.31;49.08;95407.52;106787;1274;22649;-65
2023/04/22 07:33:21;;;;;;;6.50;5.40;;;;;;;13.42;49.27;95407.87;106782;1274;22521;-65
2023/04/22 07:35:50;;;;;;;7.70;5.10;;;;;;;13.51;48.42;95407.77;106728;1267;22634;-65
2023/04/22 07:38:18;;;;;;;10.60;5.70;;;;;;;13.61;48.44;95408.67;106773;1263;22629;-65
2023/04/22 07:40:46;;;;;;;8.40;5.50;;;;;;;13.69;47.84;95409.46;106645;1274;25369;-65
2023/04/22 07:43:14;;;;;;;9.50;5.40;;;;;;;13.82;49.09;95409.20;106641;1274;24246;-65
2023/04/22 07:45:43;;;;;;;7.60;5.60;;;;;;;13.96;49.61;95405.88;106818;1266;22525;-65
2023/04/22 07:48:12;;;;;;;8.00;5.70;;;;;;;14.10;48.22;95407.70;106802;1274;24211;-66
2023/04/22 07:50:40;;;;;;;8.00;5.90;;;;;;;14.17;48.39;95404.98;106684;1274;24253;-66
2023/04/22 07:53:09;;;;;;;10.60;5.80;;;;;;;14.27;48.59;95406.38;106602;1274;24262;-65
2023/04/22 07:55:37;;;;;;;10.10;5.50;;;;;;;14.35;47.05;95407.16;106778;1274;22772;-65
2023/04/22 07:58:06;;;;;;;8.80;6.10;;;;;;;14.46;47.29;95406.91;106801;1274;24288;-65
2023/04/22 08:00:34;;;;;;;8.30;5.40;;;;;;;14.57;46.97;95405.52;106850;1274;25588;-65
2023/04/22 08:03:03;;;;;;;9.30;5.30;;;;;;;14.68;46.79;95396.58;106858;1274;22634;-65
2023/04/22 08:05:32;;;;;;;6.10;5.40;;;;;;;14.81;45.95;95398.77;106779;1274;22611;-65
2023/04/22 08:08:00;;;;;;;8.80;5.50;;;;;;;14.95;45.77;95395.55;106735;1274;22517;-65
2023/04/22 08:10:29;;;;;;;12.30;8.90;;;;;;;15.06;43.39;95396.70;106633;1274;22765;-65
2023/04/22 08:12:57;;;;;;;11.80;10.60;;;;;;;15.18;41.94;95395.18;106779;1274;22520;-65
2023/04/22 08:15:25;;;;;;;6.90;5.60;;;;;;;15.26;42.58;95394.14;106737;1274;25364;-66
2023/04/22 08:17:53;;;;;;;7.30;5.40;;;;;;;15.39;44.00;95396.29;106749;1274;24245;-66
2023/04/22 08:20:22;;;;;;;6.80;5.60;;;;;;;15.54;44.70;95397.97;106628;1274;25359;-66
2023/04/22 08:22:56;;;;;;;8.30;5.10;;;;;;;15.63;40.54;95394.92;106739;1274;22530;-66
2023/04/22 08:25:24;;;;;;;5.00;4.50;;;;;;;15.68;38.62;95392.45;106713;1274;22506;-66
2023/04/22 08:27:52;;;;;;;6.60;5.40;;;;;;;15.79;39.63;95390.79;106764;1274;22566;-66
2023/04/22 08:30:20;;;;;;;5.40;4.60;;;;;;;15.92;40.96;95393.60;106684;1274;22927;-66
2023/04/22 08:32:49;;;;;;;7.60;5.00;;;;;;;15.99;37.71;95390.97;106755;1274;24256;-66
2023/04/22 08:35:17;;;;;;;6.10;4.70;;;;;;;16.05;36.98;95392.16;106750;1274;24368;-66
2023/04/22 08:37:45;;;;;;;6.50;4.50;;;;;;;16.10;36.41;95396.00;106624;1274;24341;-66
2023/04/22 08:40:13;;;;;;;7.20;5.20;;;;;;;16.13;36.27;95395.33;106739;1274;22627;-66
2023/04/22 08:42:43;;;;;;;6.90;4.90;;;;;;;16.24;36.37;95396.45;106750;1274;25387;-66
2023/04/22 08:45:12;;;;;;;5.60;4.50;;;;;;;16.39;38.10;95397.76;106785;1274;22518;-66
2023/04/22 08:47:41;;;;;;;6.90;4.80;;;;;;;16.51;35.38;95395.79;106798;1274;22756;-66
2023/04/22 08:50:10;;;;;;;4.30;3.90;;;;;;;16.57;35.56;95397.50;106808;1274;22517;-66
2023/04/22 08:52:40;;;;;;;7.20;3.80;;;;;;;16.67;34.68;95394.16;106818;1274;24378;-66
2023/04/22 08:55:09;;;;;;;6.60;4.30;;;;;;;16.81;34.32;95396.41;106665;1274;22563;-66
2023/04/22 08:57:38;;;;;;;5.50;4.40;;;;;;;16.93;34.87;95393.89;106822;1274;22525;-66
2023/04/22 09:00:08;;;;;;;4.90;4.40;;;;;;;17.06;33.73;95393.11;106685;1274;24268;-66
2023/04/22 09:02:38;;;;;;;6.40;4.30;;;;;;;17.17;33.55;95390.29;106680;1274;22528;-66
2023/04/22 09:05:09;;;;;;;5.80;4.50;;;;;;;17.23;32.04;95391.79;106808;1274;22521;-66
2023/04/22 09:07:37;;;;;;;6.50;4.10;;;;;;;17.21;31.81;95388.30;106849;1263;22638;-66
2023/04/22 09:10:07;;;;;;;6.00;3.70;;;;;;;17.24;31.58;95385.67;107020;1274;23903;-66
2023/04/22 09:12:37;;;;;;;5.90;4.60;;;;;;;17.36;32.62;95383.32;106831;1274;22524;-66
2023/04/22 09:15:07;;;;;;;7.60;4.00;;;;;;;17.54;32.93;95386.70;106739;1274;25255;-66
2023/04/22 09:17:37;;;;;;;5.20;4.60;;;;;;;17.69;32.55;95382.41;106632;1274;22635;-66
2023/04/22 09:20:07;;;;;;;5.60;4.30;;;;;;;17.81;31.72;95377.39;106726;1274;23001;-66
2023/04/22 09:22:42;;;;;;;14.00;9.00;;;;;;;17.96;33.28;95380.20;106767;1274;22727;-67
2023/04/22 09:25:18;;;;;;;53.90;22.50;;;;;;;18.11;32.51;95379.42;106721;1274;22579;-66
2023/04/22 09:27:57;;;;;;;8.10;4.30;;;;;;;18.18;32.18;95373.73;106815;1274;22633;-66
2023/04/22 09:30:30;;;;;;;5.20;4.10;;;;;;;18.35;31.49;95376.72;106745;1274;26551;-66
2023/04/22 09:33:01;;;;;;;4.70;4.20;;;;;;;18.47;30.29;95362.76;106784;1274;25494;-66
2023/04/22 09:35:31;;;;;;;5.50;4.60;;;;;;;18.50;30.60;95366.02;106749;1274;24346;-66
2023/04/22 09:38:01;;;;;;;4.90;4.40;;;;;;;18.61;31.61;95366.66;106871;1274;25468;-66
2023/04/22 09:40:31;;;;;;;6.20;4.70;;;;;;;18.80;30.26;95368.83;106788;1274;22507;-66
2023/04/22 09:43:02;;;;;;;8.20;5.20;;;;;;;18.81;29.27;95367.19;106676;1274;23014;-66
2023/04/22 09:45:35;;;;;;;7.80;4.40;;;;;;;18.80;28.80;95366.53;106831;1274;25281;-66
2023/04/22 09:48:12;;;;;;;8.00;5.50;;;;;;;18.94;28.95;95369.67;106654;1274;25213;-66
2023/04/22 09:50:44;;;;;;;8.00;5.90;;;;;;;19.03;28.53;95358.00;106675;1274;25513;-66
2023/04/22 09:53:20;;;;;;;7.60;4.90;;;;;;;19.07;27.83;95358.63;106766;1274;25380;-66
2023/04/22 09:55:53;;;;;;;6.90;4.80;;;;;;;18.97;28.67;95355.84;106661;1274;23722;-66
2023/04/22 09:58:22;;;;;;;;;;;;;;;19.05;29.57;95354.30;106720;1274;22708;-66
2023/04/22 10:00:55;;;;;;;6.70;4.70;;;;;;;19.22;30.14;95354.63;106814;1274;24315;-66
2023/04/22 10:03:23;;;;;;;5.30;4.60;;;;;;;19.33;28.48;95352.23;106785;1274;22521;-66
2023/04/22 10:05:52;;;;;;;5.90;4.50;;;;;;;19.40;28.42;95345.35;106748;1274;22520;-66
2023/04/22 10:08:20;;;;;;;5.00;4.50;;;;;;;19.43;28.83;95344.50;106789;1274;22608;-66
2023/04/22 10:10:48;;;;;;;6.50;4.70;;;;;;;19.49;28.12;95344.66;106760;1275;22792;-66
2023/04/22 10:13:17;;;;;;;5.40;4.90;;;;;;;19.51;28.23;95347.24;106757;1274;22518;-66
2023/04/22 10:15:50;;;;;;;6.30;4.40;;;;;;;19.68;28.48;95342.55;106625;1274;22526;-66
2023/04/22 10:18:23;;;;;;;6.00;4.30;;;;;;;19.81;28.73;95338.91;106735;1274;25428;-66
2023/04/22 10:20:53;;;;;;;5.50;4.80;;;;;;;19.61;26.89;95342.21;106807;1274;22514;-66
2023/04/22 10:23:23;;;;;;;8.20;5.80;;;;;;;19.51;27.37;95336.39;106619;1266;25227;-66
2023/04/22 10:25:55;;;;;;;4.80;4.20;;;;;;;19.56;27.74;95343.17;106776;1274;25464;-66
2023/04/22 10:28:27;;;;;;;5.50;4.30;;;;;;;19.62;28.54;95340.55;106828;1274;24228;-66
2023/04/22 10:30:55;;;;;;;6.10;4.50;;;;;;;19.66;28.51;95338.52;106802;1274;22524;-66
2023/04/22 10:33:26;;;;;;;6.10;4.90;;;;;;;19.47;28.92;95335.70;106593;1274;22528;-66
2023/04/22 10:36:14;;;;;;;5.70;4.60;;;;;;;19.17;28.78;95342.95;106754;1272;22784;-66
2023/04/22 10:38:54;;;;;;;6.40;4.40;;;;;;;19.14;27.52;95343.11;106746;1274;22510;-66
2023/04/22 10:41:24;;;;;;;32.70;29.50;;;;;;;19.19;28.17;95344.06;106798;1274;22524;-66
2023/04/22 10:43:58;;;;;;;13.60;12.20;;;;;;;19.00;27.82;95339.42;106775;1275;24346;-66
2023/04/22 10:46:38;;;;;;;6.90;4.70;;;;;;;19.15;28.05;95338.77;106812;1274;24237;-66
2023/04/22 10:49:17;;;;;;;6.00;4.90;;;;;;;19.25;27.33;95339.09;106732;1274;25363;-66
2023/04/22 10:51:49;;;;;;;6.00;5.20;;;;;;;19.41;27.60;95335.33;106692;1274;22520;-66
2023/04/22 10:54:27;;;;;;;8.70;5.30;;;;;;;19.26;26.91;95337.78;106399;1263;628039;-66
2023/04/22 10:57:05;;;;;;;7.70;4.90;;;;;;;18.97;26.82;95337.64;106760;1274;25470;-66
2023/04/22 10:59:40;;;;;;;7.10;4.50;;;;;;;19.06;26.66;95334.09;106759;1274;25475;-66
2023/04/22 11:02:12;;;;;;;6.20;4.40;;;;;;;19.36;27.78;95333.44;106774;1274;25411;-66
2023/04/22 11:04:40;;;;;;;5.50;4.70;;;;;;;19.33;26.34;95333.30;106787;1274;22513;-66
2023/04/22 11:07:14;;;;;;;12.30;6.00;;;;;;;18.90;26.38;95331.95;106847;1274;22522;-66
2023/04/22 11:09:44;;;;;;;4.90;4.40;;;;;;;18.38;26.03;95337.23;106781;1274;22565;-66
2023/04/22 11:12:34;;;;;;;8.40;4.60;;;;;;;18.06;26.93;95342.15;106743;1274;22521;-66
2023/04/22 11:15:18;;;;;;;8.10;5.20;;;;;;;17.73;27.10;95339.17;106797;1274;22653;-66
2023/04/22 11:17:51;;;;;;;6.40;4.50;;;;;;;17.55;27.64;95341.66;106805;1274;23949;-66
2023/04/22 11:20:20;;;;;;;5.70;4.30;;;;;;;17.46;27.72;95338.39;106781;1274;24192;-66
2023/04/22 11:35:33;;;;;;;9.50;7.00;;;;;;;17.50;28.93;95331.77;104649;1303;558620;-66
2023/04/22 11:38:05;;;;;;;6.80;5.00;;;;;;;17.47;29.54;95320.36;105942;1286;144266;-66
2023/04/22 11:40:38;;;;;;;6.40;5.10;;;;;;;17.43;33.85;95331.96;106135;1286;25206;-66
2023/04/22 11:43:10;;;;;;;7.70;4.70;;;;;;;17.47;31.99;95338.70;106264;1286;24232;-66
2023/04/22 11:45:39;;;;;;;5.60;4.40;;;;;;;17.51;31.54;95341.50;106768;1275;23891;-66
2023/04/22 11:48:09;;;;;;;7.90;4.30;;;;;;;17.56;31.22;95343.58;106929;1275;24331;-65
2023/04/22 11:50:41;;;;;;;7.00;4.60;;;;;;;17.83;30.75;95342.43;106897;1275;24280;-65
2023/04/22 11:53:17;;;;;;;7.70;4.70;;;;;;;18.00;30.71;95346.38;106677;1275;26786;-65